sensor_id;sensor_type;location;lat;lon;timestamp;P1;durP1;ratioP1;P2;durP2;ratioP2
59147;SDS011;44930;52.878;6.168;2023-07-24T00:00:20;10.20;;;6.30;;
59147;SDS011;44930;52.878;6.168;2023-07-24T00:02:46;13.27;;;7.35;;
59147;SDS011;44930;52.878;6.168;2023-07-24T00:05:11;11.98;;;6.35;;
59147;SDS011;44930;52.878;6.168;2023-07-24T00:07:37;10.65;;;6.30;;
59147;SDS011;44930;52.878;6.168;2023-07-24T00:10:03;10.25;;;6.68;;
59147;SDS011;44930;52.878;6.168;2023-07-24T00:12:29;9.40;;;6.47;;
59147;SDS011;44930;52.878;6.168;2023-07-24T00:14:55;9.77;;;6.50;;
59147;SDS011;44930;52.878;6.168;2023-07-24T00:17:21;9.63;;;6.50;;
59147;SDS011;44930;52.878;6.168;2023-07-24T00:19:46;10.82;;;6.95;;
59147;SDS011;44930;52.878;6.168;2023-07-24T00:22:12;11.85;;;7.15;;
59147;SDS011;44930;52.878;6.168;2023-07-24T00:24:38;11.15;;;8.20;;
59147;SDS011;44930;52.878;6.168;2023-07-24T00:27:04;12.20;;;8.02;;
59147;SDS011;44930;52.878;6.168;2023-07-24T00:29:29;12.15;;;9.80;;
59147;SDS011;44930;52.878;6.168;2023-07-24T00:31:55;11.05;;;9.32;;
59147;SDS011;44930;52.878;6.168;2023-07-24T00:34:20;12.50;;;8.48;;
59147;SDS011;44930;52.878;6.168;2023-07-24T00:36:46;13.32;;;10.07;;
59147;SDS011;44930;52.878;6.168;2023-07-24T00:39:13;11.07;;;9.52;;
59147;SDS011;44930;52.878;6.168;2023-07-24T00:41:39;11.05;;;9.48;;
59147;SDS011;44930;52.878;6.168;2023-07-24T00:44:05;12.02;;;9.38;;
59147;SDS011;44930;52.878;6.168;2023-07-24T00:46:30;11.65;;;9.90;;
59147;SDS011;44930;52.878;6.168;2023-07-24T00:48:57;15.55;;;10.20;;
59147;SDS011;44930;52.878;6.168;2023-07-24T00:51:25;13.20;;;11.13;;
59147;SDS011;44930;52.878;6.168;2023-07-24T00:53:57;11.82;;;10.48;;
59147;SDS011;44930;52.878;6.168;2023-07-24T00:56:26;14.32;;;11.70;;
59147;SDS011;44930;52.878;6.168;2023-07-24T00:58:52;12.43;;;10.65;;
59147;SDS011;44930;52.878;6.168;2023-07-24T01:01:23;11.73;;;10.52;;
59147;SDS011;44930;52.878;6.168;2023-07-24T01:03:49;14.60;;;10.80;;
59147;SDS011;44930;52.878;6.168;2023-07-24T01:06:16;12.88;;;11.15;;
59147;SDS011;44930;52.878;6.168;2023-07-24T01:08:42;12.70;;;10.00;;
59147;SDS011;44930;52.878;6.168;2023-07-24T01:14:08;11.38;;;10.07;;
59147;SDS011;44930;52.878;6.168;2023-07-24T01:16:38;11.52;;;9.52;;
59147;SDS011;44930;52.878;6.168;2023-07-24T01:19:20;9.35;;;8.38;;
59147;SDS011;44930;52.878;6.168;2023-07-24T01:27:42;10.38;;;8.93;;
59147;SDS011;44930;52.878;6.168;2023-07-24T01:30:09;10.60;;;8.52;;
59147;SDS011;44930;52.878;6.168;2023-07-24T01:32:36;13.23;;;8.80;;
59147;SDS011;44930;52.878;6.168;2023-07-24T01:35:02;9.80;;;8.80;;
59147;SDS011;44930;52.878;6.168;2023-07-24T01:37:27;12.95;;;8.68;;
59147;SDS011;44930;52.878;6.168;2023-07-24T01:39:53;8.25;;;7.38;;
59147;SDS011;44930;52.878;6.168;2023-07-24T01:42:21;10.70;;;8.05;;
59147;SDS011;44930;52.878;6.168;2023-07-24T01:44:51;10.68;;;7.65;;
59147;SDS011;44930;52.878;6.168;2023-07-24T01:47:17;11.98;;;7.55;;
59147;SDS011;44930;52.878;6.168;2023-07-24T01:49:42;12.35;;;8.07;;
59147;SDS011;44930;52.878;6.168;2023-07-24T01:52:08;15.63;;;9.82;;
59147;SDS011;44930;52.878;6.168;2023-07-24T01:54:33;9.13;;;7.95;;
59147;SDS011;44930;52.878;6.168;2023-07-24T01:56:59;10.80;;;7.45;;
59147;SDS011;44930;52.878;6.168;2023-07-24T01:59:24;10.18;;;7.70;;
59147;SDS011;44930;52.878;6.168;2023-07-24T02:01:50;12.60;;;7.82;;
59147;SDS011;44930;52.878;6.168;2023-07-24T02:04:16;10.40;;;7.35;;
59147;SDS011;44930;52.878;6.168;2023-07-24T02:06:41;9.88;;;7.53;;
59147;SDS011;44930;52.878;6.168;2023-07-24T02:09:07;8.50;;;6.80;;
59147;SDS011;44930;52.878;6.168;2023-07-24T02:11:33;10.07;;;7.95;;
59147;SDS011;44930;52.878;6.168;2023-07-24T02:13:59;10.13;;;7.03;;
59147;SDS011;44930;52.878;6.168;2023-07-24T02:16:24;9.88;;;7.75;;
59147;SDS011;44930;52.878;6.168;2023-07-24T02:18:50;12.48;;;7.75;;
59147;SDS011;44930;52.878;6.168;2023-07-24T02:21:15;8.85;;;7.95;;
59147;SDS011;44930;52.878;6.168;2023-07-24T02:23:41;9.15;;;7.88;;
59147;SDS011;44930;52.878;6.168;2023-07-24T02:26:06;10.32;;;7.55;;
59147;SDS011;44930;52.878;6.168;2023-07-24T02:28:32;9.90;;;7.75;;
59147;SDS011;44930;52.878;6.168;2023-07-24T02:30:57;11.02;;;8.70;;
59147;SDS011;44930;52.878;6.168;2023-07-24T02:33:25;8.95;;;7.72;;
59147;SDS011;44930;52.878;6.168;2023-07-24T02:35:51;12.10;;;8.70;;
59147;SDS011;44930;52.878;6.168;2023-07-24T02:38:17;10.70;;;8.35;;
59147;SDS011;44930;52.878;6.168;2023-07-24T02:40:43;9.88;;;7.90;;
59147;SDS011;44930;52.878;6.168;2023-07-24T02:43:09;9.93;;;8.43;;
59147;SDS011;44930;52.878;6.168;2023-07-24T02:45:35;11.55;;;8.30;;
59147;SDS011;44930;52.878;6.168;2023-07-24T02:48:03;12.13;;;9.00;;
59147;SDS011;44930;52.878;6.168;2023-07-24T02:50:29;10.93;;;8.98;;
59147;SDS011;44930;52.878;6.168;2023-07-24T02:52:55;10.57;;;8.82;;
59147;SDS011;44930;52.878;6.168;2023-07-24T02:55:20;10.20;;;8.50;;
59147;SDS011;44930;52.878;6.168;2023-07-24T02:57:46;11.45;;;9.45;;
59147;SDS011;44930;52.878;6.168;2023-07-24T03:00:12;11.32;;;8.55;;
59147;SDS011;44930;52.878;6.168;2023-07-24T03:02:38;11.73;;;9.30;;
59147;SDS011;44930;52.878;6.168;2023-07-24T03:05:04;14.32;;;9.70;;
59147;SDS011;44930;52.878;6.168;2023-07-24T03:07:30;12.43;;;9.23;;
59147;SDS011;44930;52.878;6.168;2023-07-24T03:09:56;10.80;;;9.68;;
59147;SDS011;44930;52.878;6.168;2023-07-24T03:12:22;13.27;;;10.05;;
59147;SDS011;44930;52.878;6.168;2023-07-24T03:14:47;12.07;;;9.32;;
59147;SDS011;44930;52.878;6.168;2023-07-24T03:17:13;13.43;;;9.95;;
59147;SDS011;44930;52.878;6.168;2023-07-24T03:19:40;13.13;;;10.13;;
59147;SDS011;44930;52.878;6.168;2023-07-24T03:22:06;13.48;;;10.52;;
59147;SDS011;44930;52.878;6.168;2023-07-24T03:24:31;14.52;;;10.00;;
59147;SDS011;44930;52.878;6.168;2023-07-24T03:26:57;12.65;;;9.10;;
59147;SDS011;44930;52.878;6.168;2023-07-24T03:29:22;12.45;;;9.80;;
59147;SDS011;44930;52.878;6.168;2023-07-24T03:31:48;10.63;;;9.48;;
59147;SDS011;44930;52.878;6.168;2023-07-24T03:34:13;11.20;;;9.65;;
59147;SDS011;44930;52.878;6.168;2023-07-24T03:36:39;12.95;;;9.73;;
59147;SDS011;44930;52.878;6.168;2023-07-24T03:39:07;10.93;;;9.77;;
59147;SDS011;44930;52.878;6.168;2023-07-24T03:41:34;11.02;;;9.27;;
59147;SDS011;44930;52.878;6.168;2023-07-24T03:43:59;13.15;;;10.57;;
59147;SDS011;44930;52.878;6.168;2023-07-24T03:46:25;10.73;;;9.55;;
59147;SDS011;44930;52.878;6.168;2023-07-24T03:48:50;12.48;;;9.88;;
59147;SDS011;44930;52.878;6.168;2023-07-24T03:51:16;12.80;;;9.48;;
59147;SDS011;44930;52.878;6.168;2023-07-24T03:53:42;13.30;;;10.00;;
59147;SDS011;44930;52.878;6.168;2023-07-24T03:56:07;11.40;;;9.00;;
59147;SDS011;44930;52.878;6.168;2023-07-24T03:58:33;11.25;;;9.77;;
59147;SDS011;44930;52.878;6.168;2023-07-24T04:00:58;12.38;;;9.88;;
59147;SDS011;44930;52.878;6.168;2023-07-24T04:03:24;10.77;;;8.82;;
59147;SDS011;44930;52.878;6.168;2023-07-24T04:05:50;10.70;;;9.02;;
59147;SDS011;44930;52.878;6.168;2023-07-24T04:08:15;12.60;;;9.43;;
59147;SDS011;44930;52.878;6.168;2023-07-24T04:10:41;11.88;;;9.10;;
59147;SDS011;44930;52.878;6.168;2023-07-24T04:13:06;15.43;;;9.85;;
59147;SDS011;44930;52.878;6.168;2023-07-24T04:15:32;10.25;;;9.10;;
59147;SDS011;44930;52.878;6.168;2023-07-24T04:17:57;9.25;;;8.35;;
59147;SDS011;44930;52.878;6.168;2023-07-24T04:20:23;9.85;;;8.50;;
59147;SDS011;44930;52.878;6.168;2023-07-24T04:22:49;11.07;;;8.40;;
59147;SDS011;44930;52.878;6.168;2023-07-24T04:25:14;10.18;;;8.55;;
59147;SDS011;44930;52.878;6.168;2023-07-24T04:27:40;10.52;;;8.20;;
59147;SDS011;44930;52.878;6.168;2023-07-24T04:30:06;9.63;;;8.52;;
59147;SDS011;44930;52.878;6.168;2023-07-24T04:32:32;11.90;;;9.10;;
59147;SDS011;44930;52.878;6.168;2023-07-24T04:34:58;13.52;;;9.40;;
59147;SDS011;44930;52.878;6.168;2023-07-24T04:37:23;11.00;;;9.38;;
59147;SDS011;44930;52.878;6.168;2023-07-24T04:39:49;17.85;;;9.60;;
59147;SDS011;44930;52.878;6.168;2023-07-24T04:42:14;10.98;;;8.52;;
59147;SDS011;44930;52.878;6.168;2023-07-24T04:44:40;12.10;;;10.15;;
59147;SDS011;44930;52.878;6.168;2023-07-24T04:47:05;10.95;;;9.20;;
59147;SDS011;44930;52.878;6.168;2023-07-24T04:49:31;10.70;;;9.60;;
59147;SDS011;44930;52.878;6.168;2023-07-24T04:51:58;12.63;;;9.70;;
59147;SDS011;44930;52.878;6.168;2023-07-24T04:54:24;10.40;;;9.02;;
59147;SDS011;44930;52.878;6.168;2023-07-24T04:56:50;11.80;;;8.52;;
59147;SDS011;44930;52.878;6.168;2023-07-24T04:59:16;12.48;;;9.50;;
59147;SDS011;44930;52.878;6.168;2023-07-24T05:01:41;11.45;;;8.88;;
59147;SDS011;44930;52.878;6.168;2023-07-24T05:04:07;11.43;;;9.68;;
59147;SDS011;44930;52.878;6.168;2023-07-24T05:06:33;10.98;;;9.80;;
59147;SDS011;44930;52.878;6.168;2023-07-24T05:09:00;13.48;;;9.75;;
59147;SDS011;44930;52.878;6.168;2023-07-24T05:11:26;11.63;;;8.95;;
59147;SDS011;44930;52.878;6.168;2023-07-24T05:13:52;12.13;;;9.52;;
59147;SDS011;44930;52.878;6.168;2023-07-24T05:16:17;15.93;;;10.05;;
59147;SDS011;44930;52.878;6.168;2023-07-24T05:18:43;12.05;;;9.55;;
59147;SDS011;44930;52.878;6.168;2023-07-24T05:21:08;12.70;;;9.98;;
59147;SDS011;44930;52.878;6.168;2023-07-24T05:23:34;14.77;;;10.25;;
59147;SDS011;44930;52.878;6.168;2023-07-24T05:26:00;10.73;;;9.68;;
59147;SDS011;44930;52.878;6.168;2023-07-24T05:28:26;10.40;;;8.93;;
59147;SDS011;44930;52.878;6.168;2023-07-24T05:30:53;13.40;;;9.55;;
59147;SDS011;44930;52.878;6.168;2023-07-24T05:33:19;13.18;;;9.93;;
59147;SDS011;44930;52.878;6.168;2023-07-24T05:35:44;11.25;;;9.45;;
59147;SDS011;44930;52.878;6.168;2023-07-24T05:38:10;11.52;;;9.13;;
59147;SDS011;44930;52.878;6.168;2023-07-24T05:40:35;11.20;;;9.00;;
59147;SDS011;44930;52.878;6.168;2023-07-24T05:43:01;10.80;;;9.18;;
59147;SDS011;44930;52.878;6.168;2023-07-24T05:45:27;10.45;;;8.90;;
59147;SDS011;44930;52.878;6.168;2023-07-24T05:47:53;10.10;;;8.93;;
59147;SDS011;44930;52.878;6.168;2023-07-24T05:50:18;13.73;;;8.57;;
59147;SDS011;44930;52.878;6.168;2023-07-24T05:52:44;12.05;;;8.38;;
59147;SDS011;44930;52.878;6.168;2023-07-24T05:55:09;9.98;;;8.32;;
59147;SDS011;44930;52.878;6.168;2023-07-24T05:57:35;13.90;;;8.95;;
59147;SDS011;44930;52.878;6.168;2023-07-24T06:00:04;11.57;;;8.40;;
59147;SDS011;44930;52.878;6.168;2023-07-24T06:02:31;12.93;;;8.85;;
59147;SDS011;44930;52.878;6.168;2023-07-24T06:04:56;12.48;;;8.98;;
59147;SDS011;44930;52.878;6.168;2023-07-24T06:07:22;11.20;;;8.27;;
59147;SDS011;44930;52.878;6.168;2023-07-24T06:09:48;12.07;;;8.23;;
59147;SDS011;44930;52.878;6.168;2023-07-24T06:12:13;12.40;;;8.48;;
59147;SDS011;44930;52.878;6.168;2023-07-24T06:14:39;10.70;;;7.72;;
59147;SDS011;44930;52.878;6.168;2023-07-24T06:17:05;11.88;;;8.85;;
59147;SDS011;44930;52.878;6.168;2023-07-24T06:19:30;11.23;;;7.88;;
59147;SDS011;44930;52.878;6.168;2023-07-24T06:21:56;10.05;;;7.63;;
59147;SDS011;44930;52.878;6.168;2023-07-24T06:24:21;12.80;;;8.23;;
59147;SDS011;44930;52.878;6.168;2023-07-24T06:26:48;11.65;;;8.07;;
59147;SDS011;44930;52.878;6.168;2023-07-24T06:29:14;11.65;;;8.25;;
59147;SDS011;44930;52.878;6.168;2023-07-24T06:31:40;11.77;;;7.68;;
59147;SDS011;44930;52.878;6.168;2023-07-24T06:34:05;10.80;;;7.47;;
59147;SDS011;44930;52.878;6.168;2023-07-24T06:36:31;14.40;;;8.63;;
59147;SDS011;44930;52.878;6.168;2023-07-24T06:38:57;11.02;;;8.25;;
59147;SDS011;44930;52.878;6.168;2023-07-24T06:41:22;12.65;;;8.32;;
59147;SDS011;44930;52.878;6.168;2023-07-24T06:43:48;11.68;;;8.27;;
59147;SDS011;44930;52.878;6.168;2023-07-24T06:46:14;11.65;;;7.90;;
59147;SDS011;44930;52.878;6.168;2023-07-24T06:48:40;13.90;;;7.75;;
59147;SDS011;44930;52.878;6.168;2023-07-24T06:51:05;16.70;;;9.27;;
59147;SDS011;44930;52.878;6.168;2023-07-24T06:53:31;14.25;;;7.57;;
59147;SDS011;44930;52.878;6.168;2023-07-24T06:55:56;14.57;;;8.07;;
59147;SDS011;44930;52.878;6.168;2023-07-24T06:58:22;13.18;;;7.25;;
59147;SDS011;44930;52.878;6.168;2023-07-24T07:00:47;12.07;;;7.78;;
59147;SDS011;44930;52.878;6.168;2023-07-24T07:03:13;13.45;;;8.05;;
59147;SDS011;44930;52.878;6.168;2023-07-24T07:05:38;12.98;;;7.57;;
59147;SDS011;44930;52.878;6.168;2023-07-24T07:08:04;10.00;;;7.32;;
59147;SDS011;44930;52.878;6.168;2023-07-24T07:10:32;15.20;;;7.32;;
59147;SDS011;44930;52.878;6.168;2023-07-24T07:12:58;14.68;;;7.43;;
59147;SDS011;44930;52.878;6.168;2023-07-24T07:15:24;14.10;;;8.05;;
59147;SDS011;44930;52.878;6.168;2023-07-24T07:17:49;12.18;;;7.25;;
59147;SDS011;44930;52.878;6.168;2023-07-24T07:20:15;10.38;;;6.72;;
59147;SDS011;44930;52.878;6.168;2023-07-24T07:22:40;15.13;;;8.20;;
59147;SDS011;44930;52.878;6.168;2023-07-24T07:25:06;10.00;;;6.70;;
59147;SDS011;44930;52.878;6.168;2023-07-24T07:27:32;10.48;;;6.82;;
59147;SDS011;44930;52.878;6.168;2023-07-24T07:29:57;12.93;;;7.10;;
59147;SDS011;44930;52.878;6.168;2023-07-24T07:32:23;16.20;;;7.03;;
59147;SDS011;44930;52.878;6.168;2023-07-24T07:34:49;14.85;;;7.65;;
59147;SDS011;44930;52.878;6.168;2023-07-24T07:37:15;13.05;;;7.35;;
59147;SDS011;44930;52.878;6.168;2023-07-24T07:39:40;11.77;;;7.22;;
59147;SDS011;44930;52.878;6.168;2023-07-24T07:42:06;15.55;;;7.50;;
59147;SDS011;44930;52.878;6.168;2023-07-24T07:44:32;18.63;;;7.80;;
59147;SDS011;44930;52.878;6.168;2023-07-24T07:46:57;9.55;;;6.43;;
59147;SDS011;44930;52.878;6.168;2023-07-24T07:49:23;11.57;;;6.82;;
59147;SDS011;44930;52.878;6.168;2023-07-24T07:51:48;10.38;;;7.05;;
59147;SDS011;44930;52.878;6.168;2023-07-24T07:54:14;16.30;;;6.95;;
59147;SDS011;44930;52.878;6.168;2023-07-24T07:56:40;16.90;;;7.07;;
59147;SDS011;44930;52.878;6.168;2023-07-24T07:59:06;12.15;;;6.53;;
59147;SDS011;44930;52.878;6.168;2023-07-24T08:01:31;12.95;;;6.95;;
59147;SDS011;44930;52.878;6.168;2023-07-24T08:03:57;16.35;;;7.00;;
59147;SDS011;44930;52.878;6.168;2023-07-24T08:06:23;15.45;;;7.43;;
59147;SDS011;44930;52.878;6.168;2023-07-24T08:08:49;12.30;;;6.82;;
59147;SDS011;44930;52.878;6.168;2023-07-24T08:11:15;17.13;;;6.88;;
59147;SDS011;44930;52.878;6.168;2023-07-24T08:13:41;13.20;;;6.53;;
59147;SDS011;44930;52.878;6.168;2023-07-24T08:16:13;13.50;;;7.45;;
59147;SDS011;44930;52.878;6.168;2023-07-24T08:18:46;13.45;;;7.20;;
59147;SDS011;44930;52.878;6.168;2023-07-24T08:21:15;15.10;;;7.20;;
59147;SDS011;44930;52.878;6.168;2023-07-24T08:23:40;17.42;;;7.90;;
59147;SDS011;44930;52.878;6.168;2023-07-24T08:26:06;13.95;;;7.35;;
59147;SDS011;44930;52.878;6.168;2023-07-24T08:28:32;15.38;;;7.85;;
59147;SDS011;44930;52.878;6.168;2023-07-24T08:31:00;17.52;;;7.20;;
59147;SDS011;44930;52.878;6.168;2023-07-24T08:33:29;21.60;;;7.93;;
59147;SDS011;44930;52.878;6.168;2023-07-24T08:36:07;13.75;;;6.93;;
59147;SDS011;44930;52.878;6.168;2023-07-24T08:38:33;11.00;;;7.00;;
59147;SDS011;44930;52.878;6.168;2023-07-24T08:41:06;15.52;;;7.68;;
59147;SDS011;44930;52.878;6.168;2023-07-24T08:43:37;14.48;;;7.78;;
59147;SDS011;44930;52.878;6.168;2023-07-24T08:46:03;12.40;;;6.95;;
59147;SDS011;44930;52.878;6.168;2023-07-24T08:48:40;16.13;;;6.97;;
59147;SDS011;44930;52.878;6.168;2023-07-24T08:51:08;13.55;;;7.20;;
59147;SDS011;44930;52.878;6.168;2023-07-24T08:53:36;17.75;;;8.30;;
59147;SDS011;44930;52.878;6.168;2023-07-24T08:56:03;13.75;;;6.85;;
59147;SDS011;44930;52.878;6.168;2023-07-24T08:58:30;12.75;;;7.53;;
59147;SDS011;44930;52.878;6.168;2023-07-24T09:00:56;14.63;;;7.82;;
59147;SDS011;44930;52.878;6.168;2023-07-24T09:03:22;17.00;;;7.97;;
59147;SDS011;44930;52.878;6.168;2023-07-24T09:05:48;15.90;;;7.85;;
59147;SDS011;44930;52.878;6.168;2023-07-24T09:08:14;12.45;;;6.85;;
59147;SDS011;44930;52.878;6.168;2023-07-24T09:10:39;16.73;;;7.07;;
59147;SDS011;44930;52.878;6.168;2023-07-24T09:13:05;16.45;;;8.18;;
59147;SDS011;44930;52.878;6.168;2023-07-24T09:15:41;26.17;;;8.00;;
59147;SDS011;44930;52.878;6.168;2023-07-24T09:18:08;15.75;;;7.25;;
59147;SDS011;44930;52.878;6.168;2023-07-24T09:20:40;15.88;;;8.15;;
59147;SDS011;44930;52.878;6.168;2023-07-24T09:23:07;11.07;;;5.50;;
59147;SDS011;44930;52.878;6.168;2023-07-24T09:25:34;11.20;;;6.18;;
59147;SDS011;44930;52.878;6.168;2023-07-24T09:28:00;13.05;;;6.60;;
59147;SDS011;44930;52.878;6.168;2023-07-24T09:30:33;12.20;;;6.40;;
59147;SDS011;44930;52.878;6.168;2023-07-24T09:32:59;12.07;;;6.20;;
59147;SDS011;44930;52.878;6.168;2023-07-24T09:35:24;11.10;;;5.75;;
59147;SDS011;44930;52.878;6.168;2023-07-24T09:38:01;14.57;;;6.47;;
59147;SDS011;44930;52.878;6.168;2023-07-24T09:40:28;11.52;;;5.43;;
59147;SDS011;44930;52.878;6.168;2023-07-24T09:43:02;12.02;;;5.70;;
59147;SDS011;44930;52.878;6.168;2023-07-24T09:45:27;12.35;;;5.55;;
59147;SDS011;44930;52.878;6.168;2023-07-24T09:47:53;13.02;;;5.35;;
59147;SDS011;44930;52.878;6.168;2023-07-24T09:50:21;8.65;;;5.43;;
59147;SDS011;44930;52.878;6.168;2023-07-24T09:52:48;12.20;;;5.80;;
59147;SDS011;44930;52.878;6.168;2023-07-24T09:55:15;10.63;;;6.80;;
59147;SDS011;44930;52.878;6.168;2023-07-24T09:57:54;14.30;;;6.55;;
59147;SDS011;44930;52.878;6.168;2023-07-24T10:00:21;10.55;;;5.95;;
59147;SDS011;44930;52.878;6.168;2023-07-24T10:02:47;9.85;;;5.30;;
59147;SDS011;44930;52.878;6.168;2023-07-24T10:05:14;11.45;;;5.60;;
59147;SDS011;44930;52.878;6.168;2023-07-24T10:07:40;11.18;;;5.90;;
59147;SDS011;44930;52.878;6.168;2023-07-24T10:10:06;16.38;;;5.50;;
59147;SDS011;44930;52.878;6.168;2023-07-24T10:12:33;14.60;;;6.38;;
59147;SDS011;44930;52.878;6.168;2023-07-24T10:14:59;10.45;;;5.47;;
59147;SDS011;44930;52.878;6.168;2023-07-24T10:17:38;11.18;;;6.22;;
59147;SDS011;44930;52.878;6.168;2023-07-24T10:20:05;12.50;;;6.68;;
59147;SDS011;44930;52.878;6.168;2023-07-24T10:22:32;8.25;;;5.47;;
59147;SDS011;44930;52.878;6.168;2023-07-24T10:24:58;10.35;;;5.85;;
59147;SDS011;44930;52.878;6.168;2023-07-24T10:27:24;12.95;;;6.65;;
59147;SDS011;44930;52.878;6.168;2023-07-24T10:32:25;11.02;;;6.00;;
59147;SDS011;44930;52.878;6.168;2023-07-24T10:34:59;9.82;;;5.32;;
59147;SDS011;44930;52.878;6.168;2023-07-24T10:37:32;9.93;;;4.97;;
59147;SDS011;44930;52.878;6.168;2023-07-24T10:39:59;10.10;;;4.35;;
59147;SDS011;44930;52.878;6.168;2023-07-24T10:42:25;9.48;;;4.97;;
59147;SDS011;44930;52.878;6.168;2023-07-24T10:45:01;9.73;;;5.25;;
59147;SDS011;44930;52.878;6.168;2023-07-24T10:47:34;11.18;;;5.63;;
59147;SDS011;44930;52.878;6.168;2023-07-24T10:49:59;10.07;;;4.57;;
59147;SDS011;44930;52.878;6.168;2023-07-24T10:52:29;10.73;;;5.60;;
59147;SDS011;44930;52.878;6.168;2023-07-24T10:54:56;9.10;;;4.60;;
59147;SDS011;44930;52.878;6.168;2023-07-24T10:57:25;14.20;;;5.85;;
59147;SDS011;44930;52.878;6.168;2023-07-24T10:59:51;8.80;;;4.55;;
59147;SDS011;44930;52.878;6.168;2023-07-24T11:02:17;10.85;;;5.00;;
59147;SDS011;44930;52.878;6.168;2023-07-24T11:04:43;10.80;;;5.32;;
59147;SDS011;44930;52.878;6.168;2023-07-24T11:07:08;10.65;;;4.72;;
59147;SDS011;44930;52.878;6.168;2023-07-24T11:09:35;8.73;;;5.13;;
59147;SDS011;44930;52.878;6.168;2023-07-24T11:12:11;10.05;;;5.50;;
59147;SDS011;44930;52.878;6.168;2023-07-24T11:14:52;10.35;;;4.50;;
59147;SDS011;44930;52.878;6.168;2023-07-24T11:17:21;11.65;;;4.82;;
59147;SDS011;44930;52.878;6.168;2023-07-24T11:19:46;9.95;;;5.28;;
59147;SDS011;44930;52.878;6.168;2023-07-24T11:22:12;11.45;;;5.20;;
59147;SDS011;44930;52.878;6.168;2023-07-24T11:24:42;8.95;;;4.65;;
59147;SDS011;44930;52.878;6.168;2023-07-24T11:27:15;11.23;;;5.80;;
59147;SDS011;44930;52.878;6.168;2023-07-24T11:29:50;11.27;;;5.07;;
59147;SDS011;44930;52.878;6.168;2023-07-24T11:32:19;9.67;;;4.97;;
59147;SDS011;44930;52.878;6.168;2023-07-24T11:34:46;7.28;;;5.13;;
59147;SDS011;44930;52.878;6.168;2023-07-24T11:37:14;11.30;;;4.63;;
59147;SDS011;44930;52.878;6.168;2023-07-24T11:39:40;10.10;;;5.07;;
59147;SDS011;44930;52.878;6.168;2023-07-24T11:42:06;7.00;;;4.43;;
59147;SDS011;44930;52.878;6.168;2023-07-24T11:44:31;7.55;;;4.40;;
59147;SDS011;44930;52.878;6.168;2023-07-24T11:47:01;9.35;;;5.10;;
59147;SDS011;44930;52.878;6.168;2023-07-24T11:49:30;8.68;;;5.05;;
59147;SDS011;44930;52.878;6.168;2023-07-24T11:52:00;9.60;;;4.68;;
59147;SDS011;44930;52.878;6.168;2023-07-24T11:54:28;9.60;;;4.78;;
59147;SDS011;44930;52.878;6.168;2023-07-24T11:56:54;8.45;;;4.22;;
59147;SDS011;44930;52.878;6.168;2023-07-24T11:59:19;10.20;;;5.38;;
59147;SDS011;44930;52.878;6.168;2023-07-24T12:01:45;10.50;;;5.32;;
59147;SDS011;44930;52.878;6.168;2023-07-24T12:04:15;7.22;;;4.20;;
59147;SDS011;44930;52.878;6.168;2023-07-24T12:06:41;8.25;;;4.75;;
59147;SDS011;44930;52.878;6.168;2023-07-24T12:09:07;10.75;;;4.43;;
59147;SDS011;44930;52.878;6.168;2023-07-24T12:11:33;7.55;;;4.70;;
59147;SDS011;44930;52.878;6.168;2023-07-24T12:14:04;6.28;;;4.40;;
59147;SDS011;44930;52.878;6.168;2023-07-24T12:16:30;8.73;;;4.80;;
59147;SDS011;44930;52.878;6.168;2023-07-24T12:18:58;6.10;;;4.07;;
59147;SDS011;44930;52.878;6.168;2023-07-24T12:21:23;6.53;;;4.18;;
59147;SDS011;44930;52.878;6.168;2023-07-24T12:23:49;5.93;;;4.63;;
59147;SDS011;44930;52.878;6.168;2023-07-24T12:26:15;7.47;;;4.80;;
59147;SDS011;44930;52.878;6.168;2023-07-24T12:28:40;9.68;;;4.85;;
59147;SDS011;44930;52.878;6.168;2023-07-24T12:31:06;8.75;;;5.47;;
59147;SDS011;44930;52.878;6.168;2023-07-24T12:33:31;10.00;;;5.75;;
59147;SDS011;44930;52.878;6.168;2023-07-24T12:35:57;10.00;;;7.22;;
59147;SDS011;44930;52.878;6.168;2023-07-24T12:38:22;9.15;;;6.20;;
59147;SDS011;44930;52.878;6.168;2023-07-24T12:40:48;7.43;;;5.78;;
59147;SDS011;44930;52.878;6.168;2023-07-24T12:43:14;6.80;;;5.38;;
59147;SDS011;44930;52.878;6.168;2023-07-24T12:45:40;9.60;;;5.63;;
59147;SDS011;44930;52.878;6.168;2023-07-24T12:48:06;11.07;;;7.43;;
59147;SDS011;44930;52.878;6.168;2023-07-24T12:50:31;8.38;;;7.45;;
59147;SDS011;44930;52.878;6.168;2023-07-24T12:52:57;11.07;;;7.30;;
59147;SDS011;44930;52.878;6.168;2023-07-24T12:55:23;8.90;;;7.63;;
59147;SDS011;44930;52.878;6.168;2023-07-24T12:57:49;8.70;;;7.80;;
59147;SDS011;44930;52.878;6.168;2023-07-24T13:00:14;10.25;;;8.50;;
59147;SDS011;44930;52.878;6.168;2023-07-24T13:02:40;13.20;;;8.73;;
59147;SDS011;44930;52.878;6.168;2023-07-24T13:05:05;13.32;;;9.48;;
59147;SDS011;44930;52.878;6.168;2023-07-24T13:07:31;10.68;;;8.38;;
59147;SDS011;44930;52.878;6.168;2023-07-24T13:09:57;17.08;;;9.10;;
59147;SDS011;44930;52.878;6.168;2023-07-24T13:12:22;15.00;;;10.15;;
59147;SDS011;44930;52.878;6.168;2023-07-24T13:14:48;11.77;;;10.02;;
59147;SDS011;44930;52.878;6.168;2023-07-24T13:17:13;10.38;;;8.38;;
59147;SDS011;44930;52.878;6.168;2023-07-24T13:19:39;9.15;;;7.70;;
59147;SDS011;44930;52.878;6.168;2023-07-24T13:22:05;12.50;;;8.68;;
59147;SDS011;44930;52.878;6.168;2023-07-24T13:24:31;8.25;;;6.22;;
59147;SDS011;44930;52.878;6.168;2023-07-24T13:26:57;7.55;;;5.90;;
59147;SDS011;44930;52.878;6.168;2023-07-24T13:29:22;6.78;;;4.80;;
59147;SDS011;44930;52.878;6.168;2023-07-24T13:31:49;5.95;;;3.88;;
59147;SDS011;44930;52.878;6.168;2023-07-24T13:34:16;5.75;;;3.85;;
59147;SDS011;44930;52.878;6.168;2023-07-24T13:36:44;3.53;;;2.90;;
59147;SDS011;44930;52.878;6.168;2023-07-24T13:39:10;4.93;;;2.45;;
59147;SDS011;44930;52.878;6.168;2023-07-24T13:41:36;4.95;;;2.55;;
59147;SDS011;44930;52.878;6.168;2023-07-24T13:44:03;2.92;;;2.03;;
59147;SDS011;44930;52.878;6.168;2023-07-24T13:46:29;4.53;;;2.22;;
59147;SDS011;44930;52.878;6.168;2023-07-24T13:48:54;3.17;;;1.92;;
59147;SDS011;44930;52.878;6.168;2023-07-24T13:51:20;7.03;;;2.45;;
59147;SDS011;44930;52.878;6.168;2023-07-24T13:53:45;5.22;;;2.22;;
59147;SDS011;44930;52.878;6.168;2023-07-24T13:56:19;3.78;;;2.50;;
59147;SDS011;44930;52.878;6.168;2023-07-24T13:58:48;4.50;;;2.17;;
59147;SDS011;44930;52.878;6.168;2023-07-24T14:01:13;3.83;;;1.90;;
59147;SDS011;44930;52.878;6.168;2023-07-24T14:03:39;5.22;;;1.80;;
59147;SDS011;44930;52.878;6.168;2023-07-24T14:06:04;7.03;;;2.63;;
59147;SDS011;44930;52.878;6.168;2023-07-24T14:08:30;6.93;;;2.30;;
59147;SDS011;44930;52.878;6.168;2023-07-24T14:10:55;4.72;;;1.77;;
59147;SDS011;44930;52.878;6.168;2023-07-24T14:13:21;6.13;;;2.10;;
59147;SDS011;44930;52.878;6.168;2023-07-24T14:15:47;4.97;;;2.13;;
59147;SDS011;44930;52.878;6.168;2023-07-24T14:18:12;3.95;;;1.77;;
59147;SDS011;44930;52.878;6.168;2023-07-24T14:20:38;7.35;;;2.17;;
59147;SDS011;44930;52.878;6.168;2023-07-24T14:23:05;4.20;;;1.90;;
59147;SDS011;44930;52.878;6.168;2023-07-24T14:25:31;4.75;;;1.85;;
59147;SDS011;44930;52.878;6.168;2023-07-24T14:27:57;3.22;;;1.65;;
59147;SDS011;44930;52.878;6.168;2023-07-24T14:30:22;6.57;;;3.33;;
59147;SDS011;44930;52.878;6.168;2023-07-24T14:32:48;5.78;;;2.00;;
59147;SDS011;44930;52.878;6.168;2023-07-24T14:35:15;4.82;;;1.90;;
59147;SDS011;44930;52.878;6.168;2023-07-24T14:37:40;6.65;;;2.20;;
59147;SDS011;44930;52.878;6.168;2023-07-24T14:40:06;6.22;;;2.20;;
59147;SDS011;44930;52.878;6.168;2023-07-24T14:42:32;4.65;;;1.58;;
59147;SDS011;44930;52.878;6.168;2023-07-24T14:44:58;8.57;;;1.90;;